Gillette, Wyoming
Current Conditions -  °F | °C
As of 4:53 PM on Sunday 23 Nov 2014 (Local Time) from KBYG Reporting Station
Few Clouds Few Clouds  
Wind Chill: 24°   Ceiling: Unl
Heat Index: 32°   Visibility: 10mi
Dew Point: 11°   Wind: 9mph
Humidity: 42%   Direction: 320°NW
Pressure: 29.83"   Gusts: NA
Location:  44.29°N, 105.5°W
Report Text: KBYG 232353Z AUTO 32008KT 10SM FEW070 00/M12 A2983 RMK AO2 SLP119 60000 T00001117 10028 20000 53004 $
Loading
Personal Weather Stations






























Interactive Weather Map New forecast layout! Learn more

10-Day Weather Forecast

Advertisements
Track Severe Weather on mobile